createdAt,value
2017-04-22T00:00:13.968Z,34.57
2017-04-22T00:02:52.955Z,34.95
2017-04-22T00:05:23.947Z,35.24
2017-04-22T00:07:47.349Z,35.14
2017-04-22T00:10:17.445Z,35.33
2017-04-22T00:12:48.448Z,35.24
2017-04-22T00:15:13.901Z,35.89
2017-04-22T00:17:46.006Z,35.8
2017-04-22T00:20:17.962Z,36.08
2017-04-22T00:22:19.057Z,36.08
2017-04-22T00:24:27.710Z,35.6
2017-04-22T00:26:29.353Z,35.89
2017-04-22T00:30:28.928Z,36.85
2017-04-22T00:32:50.802Z,37.02
2017-04-22T00:35:16.228Z,36.64
2017-04-22T00:37:33.186Z,35.89
2017-04-22T00:39:43.388Z,36.08
2017-04-22T00:42:22.759Z,35.99
2017-04-22T00:44:48.159Z,35.89
2017-04-22T00:47:13.518Z,35.68
2017-04-22T00:49:43.724Z,36.54
2017-04-22T00:52:09.151Z,36.16
2017-04-22T00:54:34.574Z,36.73
2017-04-22T00:58:34.107Z,36.73
2017-04-22T01:02:33.185Z,37.12
2017-04-22T01:05:12.062Z,37.4
2017-04-22T01:07:36.472Z,37.66
2017-04-22T01:11:35.394Z,37.66
2017-04-22T01:14:14.793Z,38.53
2017-04-22T01:16:38.156Z,39.19
2017-04-22T01:20:37.644Z,39.67
2017-04-22T01:23:08.048Z,39.67
2017-04-22T01:25:38.043Z,39.95
2017-04-22T01:29:40.961Z,39.48
2017-04-22T01:32:12.912Z,39.95
2017-04-22T01:34:52.925Z,39.84
2017-04-22T01:38:51.887Z,39.58
2017-04-22T01:40:53.531Z,39.76
2017-04-22T01:43:25.422Z,40.12
2017-04-22T01:46:05.436Z,40.12
2017-04-22T01:48:28.769Z,40.32
2017-04-22T01:52:20.631Z,40.15
2017-04-22T01:54:21.760Z,40.44
2017-04-22T01:56:46.101Z,40.99
2017-04-22T01:59:18.151Z,41.08
2017-04-22T02:01:48.164Z,40.99
2017-04-22T02:04:19.165Z,41.56
2017-04-22T02:08:18.605Z,41.56
2017-04-22T02:10:19.647Z,41.65
2017-04-22T02:12:49.544Z,41.84
2017-04-22T02:15:12.851Z,41.46
2017-04-22T02:19:05.931Z,40.44
2017-04-22T02:21:30.308Z,39.95
2017-04-22T02:25:12.973Z,41.2
2017-04-22T02:27:36.344Z,41.1
2017-04-22T02:30:08.261Z,41
2017-04-22T02:32:39.259Z,41.48
2017-04-22T02:35:17.252Z,41.86
2017-04-22T02:37:55.259Z,41.77
2017-04-22T02:40:35.266Z,41.77
2017-04-22T02:44:26.360Z,42.15
2017-04-22T02:48:25.309Z,43.94
2017-04-22T02:50:56.226Z,44.13
2017-04-22T02:53:34.237Z,43.94
2017-04-22T02:55:58.563Z,44.42
2017-04-22T02:57:59.656Z,44.06
2017-04-22T03:00:29.516Z,43.84
2017-04-22T03:02:51.111Z,43.84
2017-04-22T03:05:23.005Z,44.04
2017-04-22T03:09:22.476Z,45.37
2017-04-22T03:11:46.818Z,44.32
2017-04-22T03:14:18.861Z,45.28
2017-04-22T03:18:12.512Z,44.99
2017-04-22T03:20:14.126Z,45.56
2017-04-22T03:24:13.127Z,46.42
2017-04-22T03:26:36.471Z,45.75
2017-04-22T03:29:14.509Z,46.58
2017-04-22T03:33:13.446Z,46.42
2017-04-22T03:37:14.867Z,46.51
2017-04-22T03:39:07.609Z,46.61
2017-04-22T03:42:58.169Z,46.32
2017-04-22T03:45:36.058Z,46.51
2017-04-22T03:49:35.546Z,46.8
2017-04-22T03:51:58.828Z,47.47
2017-04-22T03:54:38.883Z,48.42
2017-04-22T03:57:03.194Z,48.8
2017-04-22T03:59:41.395Z,48.42
2017-04-22T04:02:05.680Z,48.42
2017-04-22T04:04:30.976Z,48.32
2017-04-22T04:06:32.611Z,48.44
2017-04-22T04:10:23.154Z,49.37
2017-04-22T04:14:22.112Z,48.99
2017-04-22T04:18:21.049Z,48.83
2017-04-22T04:20:58.933Z,49.11
2017-04-22T04:23:15.836Z,49.49
2017-04-22T04:27:15.292Z,51.37
2017-04-22T04:29:38.545Z,51.47
2017-04-22T04:32:03.834Z,52.87
2017-04-22T04:34:34.667Z,53.54
2017-04-22T04:37:05.669Z,53.54
2017-04-22T04:39:36.671Z,53.19
2017-04-22T04:43:35.128Z,52.33
2017-04-22T04:46:00.408Z,52.42
2017-04-22T04:49:59.864Z,52.33
2017-04-22T04:52:25.161Z,53.19
2017-04-22T04:54:49.455Z,53.85
2017-04-22T04:57:12.767Z,53.95
2017-04-22T05:01:03.339Z,54.24
2017-04-22T05:03:43.221Z,54.04
2017-04-22T05:05:44.372Z,54.9
2017-04-22T05:08:15.248Z,54.71
2017-04-22T05:10:16.850Z,54.9
2017-04-22T05:12:13.991Z,55
2017-04-22T05:14:15.613Z,55.28
2017-04-22T05:16:38.966Z,55.19
2017-04-22T05:19:03.262Z,54.71
2017-04-22T05:21:27.562Z,55.09
2017-04-22T05:25:09.768Z,55.28
2017-04-22T05:27:34.010Z,55.76
2017-04-22T05:33:17.065Z,56.62
2017-04-22T05:35:34.069Z,56.9
2017-04-22T05:37:59.299Z,57
2017-04-22T05:40:00.926Z,56.71
2017-04-22T05:44:01.385Z,55.41
2017-04-22T05:48:00.357Z,55.12
2017-04-22T05:51:59.840Z,54.74
2017-04-22T05:55:58.858Z,54.55
2017-04-22T05:58:08.477Z,54.29
2017-04-22T06:00:48.388Z,54.38
2017-04-22T06:06:16.305Z,55.79
2017-04-22T06:08:47.338Z,56.33
2017-04-22T06:11:12.678Z,56.55
2017-04-22T06:15:21.551Z,56.07
2017-04-22T06:17:51.553Z,55.88
2017-04-22T06:20:15.945Z,55.5
2017-04-22T06:22:47.108Z,55.34
2017-04-22T06:26:46.582Z,56.74
2017-04-22T06:30:46.088Z,55.88
2017-04-22T06:33:25.975Z,56.07
2017-04-22T06:35:48.468Z,55.43
2017-04-22T06:38:12.849Z,54.57
2017-04-22T06:40:27.815Z,55.24
2017-04-22T06:42:43.811Z,56.55
2017-04-22T06:46:42.822Z,55.62
2017-04-22T06:50:47.810Z,54.48
2017-04-22T06:54:47.351Z,54.96
2017-04-22T06:58:46.406Z,54.96
2017-04-22T07:01:10.814Z,55.34
2017-04-22T07:05:10.350Z,55.24
2017-04-22T07:09:09.447Z,56.01
2017-04-22T07:13:08.484Z,54.67
2017-04-22T07:17:08.049Z,54.86
2017-04-22T07:19:39.443Z,54.57
2017-04-22T07:25:06.188Z,54.67
2017-04-22T07:27:30.617Z,54.48
2017-04-22T07:30:00.575Z,54.1
2017-04-22T07:34:00.116Z,53.72
2017-04-22T07:37:59.656Z,53.91
2017-04-22T07:41:50.805Z,53.43
2017-04-22T07:44:16.182Z,53.43
2017-04-22T07:46:40.580Z,53.59
2017-04-22T07:50:40.140Z,53.53
2017-04-22T07:53:05.546Z,53.24
2017-04-22T07:55:36.491Z,53.14
2017-04-22T07:58:01.888Z,54.07
2017-04-22T08:00:16.885Z,54.36
2017-04-22T08:04:16.410Z,53.24
2017-04-22T08:08:07.527Z,53.05
2017-04-22T08:10:30.938Z,53.53
2017-04-22T08:12:55.327Z,52.86
2017-04-22T08:16:54.321Z,53.24
2017-04-22T08:19:18.789Z,51.64
2017-04-22T08:21:50.705Z,51.17
2017-04-22T08:24:20.710Z,51.74
2017-04-22T08:26:22.382Z,51.62
2017-04-22T08:28:45.829Z,51.07
2017-04-22T08:31:09.319Z,51.17
2017-04-22T08:33:38.759Z,50.69
2017-04-22T08:36:03.202Z,49.95
2017-04-22T08:38:26.581Z,49.47
2017-04-22T08:40:50.984Z,49.85
2017-04-22T08:43:15.393Z,49.38
2017-04-22T08:45:38.816Z,49.47
2017-04-22T08:48:02.250Z,50.49
2017-04-22T08:50:25.679Z,50.31
2017-04-22T08:52:55.753Z,49.28
2017-04-22T08:55:19.155Z,50.21
2017-04-22T08:57:42.588Z,49.18
2017-04-22T09:00:06.016Z,50.24
2017-04-22T09:02:30.440Z,49.38
2017-04-22T09:04:53.868Z,50.59
2017-04-22T09:07:17.273Z,50.43
2017-04-22T09:09:40.714Z,50.52
2017-04-22T09:12:04.157Z,50.14
2017-04-22T09:14:29.601Z,49.28
2017-04-22T09:16:54.023Z,49.47
2017-04-22T09:19:19.485Z,48.35
2017-04-22T09:21:27.160Z,47.52
2017-04-22T09:23:50.662Z,48.25
2017-04-22T09:26:15.152Z,48.73
2017-04-22T09:28:38.639Z,48.09
2017-04-22T09:31:02.134Z,47.71
2017-04-22T09:33:32.263Z,46.3
2017-04-22T09:35:55.825Z,45.72
2017-04-22T09:38:34.269Z,44.31
2017-04-22T09:41:04.831Z,42.32
2017-04-22T09:43:06.555Z,42.8
2017-04-22T09:45:36.940Z,43.18
2017-04-22T09:48:07.455Z,42.24
2017-04-22T09:50:31.122Z,41.97
2017-04-22T09:52:32.848Z,41.02
2017-04-22T09:54:57.595Z,40.73
2017-04-22T09:57:23.299Z,41.52
2017-04-22T10:01:25.422Z,41.48
2017-04-22T10:03:49.202Z,43.2
2017-04-22T10:06:14.919Z,43.23
2017-04-22T10:08:38.687Z,45.09
2017-04-22T10:11:02.353Z,45.65
2017-04-22T10:13:26.137Z,45.48
2017-04-22T10:15:49.993Z,44.06
2017-04-22T10:18:14.725Z,45.69
2017-04-22T10:20:40.447Z,44.93
2017-04-22T10:23:05.247Z,44.54
2017-04-22T10:25:28.896Z,45.69
2017-04-22T10:27:53.705Z,46.72
2017-04-22T10:30:17.460Z,45.96
2017-04-22T10:32:43.158Z,46.05
2017-04-22T10:35:07.844Z,47.37
2017-04-22T10:37:24.181Z,45.89
2017-04-22T10:39:47.815Z,45.89
2017-04-22T10:43:48.806Z,43.24
2017-04-22T10:46:12.592Z,43.24
2017-04-22T10:48:38.411Z,44.16
2017-04-22T10:51:02.162Z,43.99
2017-04-22T10:53:19.583Z,44.37
2017-04-22T10:55:45.403Z,44.47
2017-04-22T10:57:47.261Z,43.15
2017-04-22T11:00:12.063Z,45.31
2017-04-22T11:02:37.879Z,45.59
2017-04-22T11:05:01.656Z,46.53
2017-04-22T11:07:18.038Z,48.23
2017-04-22T11:09:42.758Z,48.42
2017-04-22T11:12:07.449Z,49.48
2017-04-22T11:14:09.252Z,48.61
2017-04-22T11:16:32.977Z,48.44
2017-04-22T11:18:56.654Z,48.54
2017-04-22T11:21:20.331Z,48.61
2017-04-22T11:23:44.012Z,49.48
2017-04-22T11:26:07.677Z,50.7
2017-04-22T11:28:31.342Z,50.05
2017-04-22T11:30:55.005Z,50.6
2017-04-22T11:33:18.708Z,51.65
2017-04-22T11:35:43.379Z,52.22
2017-04-22T11:38:07.116Z,52.51
2017-04-22T11:40:30.871Z,52.13
2017-04-22T11:42:32.520Z,52.03
2017-04-22T11:44:58.105Z,52.13
2017-04-22T11:47:36.316Z,51.93
2017-04-22T11:50:01.003Z,51.93
2017-04-22T11:52:24.595Z,51.36
2017-04-22T11:54:39.741Z,51.75
2017-04-22T11:56:54.960Z,51.84
2017-04-22T11:59:27.307Z,52.58
2017-04-22T12:01:50.912Z,52.32
2017-04-22T12:04:14.403Z,52.22
2017-04-22T12:06:39.031Z,52.7
2017-04-22T12:09:02.618Z,52.99
2017-04-22T12:11:28.370Z,55.26
2017-04-22T12:13:53.837Z,56.79
2017-04-22T12:16:19.555Z,56.98
2017-04-22T12:18:51.893Z,58.7
2017-04-22T12:21:15.504Z,59.47
2017-04-22T12:23:41.113Z,60.96
2017-04-22T12:26:12.378Z,61.16
2017-04-22T12:28:35.950Z,63.8
2017-04-22T12:30:52.228Z,63.89
2017-04-22T12:33:15.769Z,64.85
2017-04-22T12:35:45.842Z,63.45
2017-04-22T12:38:04.470Z,63.73
2017-04-22T12:40:29.102Z,62.87
2017-04-22T12:42:52.649Z,62.4
2017-04-22T12:45:07.820Z,60.23
2017-04-22T12:47:31.382Z,59.66
2017-04-22T12:49:56.010Z,58.73
2017-04-22T12:52:20.574Z,58.51
2017-04-22T12:54:35.879Z,57.93
2017-04-22T12:57:00.349Z,58.19
2017-04-22T12:59:24.015Z,57.14
2017-04-22T13:02:02.531Z,57.07
2017-04-22T13:04:27.194Z,55.61
2017-04-22T13:06:51.766Z,55.35
2017-04-22T13:09:15.340Z,54.66
2017-04-22T13:11:39.078Z,55.13
2017-04-22T13:14:03.564Z,54.66
2017-04-22T13:16:18.779Z,54.18
2017-04-22T13:18:42.394Z,54.47
2017-04-22T13:21:05.902Z,53.25
2017-04-22T13:23:31.203Z,53.89
2017-04-22T13:25:56.083Z,54.72
2017-04-22T13:28:20.443Z,54.66
2017-04-22T13:30:44.192Z,54.27
2017-04-22T13:33:07.869Z,53.25
2017-04-22T13:35:31.568Z,53.7
2017-04-22T13:37:55.183Z,54.08
2017-04-22T13:40:18.757Z,53.82
2017-04-22T13:42:42.316Z,54.27
2017-04-22T13:45:06.044Z,54.08
2017-04-22T13:47:30.639Z,53.73
2017-04-22T13:49:54.344Z,54.37
2017-04-22T13:52:18.283Z,53.82
2017-04-22T13:54:42.256Z,54.47
2017-04-22T13:57:08.615Z,53.34
2017-04-22T13:59:32.292Z,53.63
2017-04-22T14:04:23.349Z,54.18
2017-04-22T14:06:51.280Z,53.7
2017-04-22T14:09:14.881Z,54.34
2017-04-22T14:11:38.556Z,53.61
2017-04-22T14:14:02.206Z,54.82
2017-04-22T14:16:25.916Z,52.17
2017-04-22T14:18:50.629Z,52.62
2017-04-22T14:26:22.111Z,51.19
2017-04-22T14:30:21.960Z,50.04
2017-04-22T14:32:45.502Z,51.54
2017-04-22T14:35:09.036Z,50.88
2017-04-22T14:37:32.614Z,51.64
2017-04-22T14:39:56.097Z,51
2017-04-22T14:42:19.643Z,49.57
2017-04-22T14:44:45.987Z,49.49
2017-04-22T14:47:09.526Z,49.38
2017-04-22T14:49:33.099Z,49.47
2017-04-22T14:51:34.336Z,48.16
2017-04-22T14:53:57.915Z,48.64
2017-04-22T14:56:21.425Z,48.07
2017-04-22T14:58:36.595Z,48.9
2017-04-22T15:01:00.036Z,49.28
2017-04-22T15:03:23.627Z,49.18
2017-04-22T15:05:47.282Z,49.28
2017-04-22T15:08:10.644Z,49.18
2017-04-22T15:10:34.111Z,48.64
2017-04-22T15:12:57.600Z,49.49
2017-04-22T15:15:21.159Z,49.66
2017-04-22T15:17:44.641Z,49.85
2017-04-22T15:20:08.113Z,49.76
2017-04-22T15:22:31.558Z,51.83
2017-04-22T15:24:55.003Z,52.59
2017-04-22T15:27:18.495Z,53.62
2017-04-22T15:29:42.033Z,53.29
2017-04-22T15:32:05.399Z,54.13
2017-04-22T15:34:29.012Z,53.08
2017-04-22T15:36:52.336Z,53.86
2017-04-22T15:39:15.807Z,52.43
2017-04-22T15:41:39.268Z,52.34
2017-04-22T15:44:02.708Z,53
2017-04-22T15:46:26.142Z,52.72
2017-04-22T15:48:49.668Z,52.24
2017-04-22T15:51:13.158Z,51.79
2017-04-22T15:53:36.635Z,52.26
2017-04-22T15:55:37.793Z,52.72
2017-04-22T15:58:01.321Z,53.77
2017-04-22T16:00:24.802Z,54.06
2017-04-22T16:02:48.281Z,53.51
2017-04-22T16:05:11.874Z,53.32
2017-04-22T16:07:35.297Z,52.55
2017-04-22T16:09:36.574Z,52.55
2017-04-22T16:11:37.833Z,54.25
2017-04-22T16:14:01.350Z,54.15
2017-04-22T16:16:24.842Z,53.41
2017-04-22T16:18:48.304Z,53.51
2017-04-22T16:21:03.426Z,54.18
2017-04-22T16:23:26.824Z,54.75
2017-04-22T16:25:50.292Z,54.49
2017-04-22T16:28:13.768Z,53.73
2017-04-22T16:30:37.239Z,54.56
2017-04-22T16:33:00.802Z,54.97
2017-04-22T16:35:24.267Z,55.26
2017-04-22T16:37:47.830Z,54.97
2017-04-22T16:40:11.323Z,56.67
2017-04-22T16:42:34.764Z,57.14
2017-04-22T16:44:58.331Z,57.71
2017-04-22T16:47:22.733Z,59.15
2017-04-22T16:51:22.986Z,59.44
2017-04-22T16:53:24.154Z,58.29
2017-04-22T16:55:47.813Z,58.29
2017-04-22T16:58:11.364Z,58.67
2017-04-22T17:00:34.822Z,59.72
2017-04-22T17:02:58.325Z,60.1
2017-04-22T17:05:21.834Z,59.63
2017-04-22T17:07:36.972Z,60.3
2017-04-22T17:10:00.468Z,60.49
2017-04-22T17:12:23.956Z,60.77
2017-04-22T17:14:47.463Z,59.44
2017-04-22T17:17:11.061Z,59.08
2017-04-22T17:19:34.718Z,60.01
2017-04-22T17:21:58.310Z,58.32
2017-04-22T17:24:21.807Z,58.29
2017-04-22T17:26:45.389Z,59.88
2017-04-22T17:29:11.540Z,60.93
2017-04-22T17:31:35.025Z,60.84
2017-04-22T17:34:01.139Z,59.91
2017-04-22T17:36:24.581Z,59.78
2017-04-22T17:38:48.141Z,61.03
2017-04-22T17:41:11.637Z,60.74
2017-04-22T17:43:35.167Z,60.9
2017-04-22T17:45:36.701Z,62.52
2017-04-22T17:48:01.300Z,62.78
2017-04-22T17:50:11.091Z,62.59
2017-04-22T17:52:34.533Z,62.68
2017-04-22T17:54:58.092Z,62.59
2017-04-22T17:57:21.506Z,62.78
2017-04-22T17:59:45.019Z,62.88
2017-04-22T18:02:08.403Z,62.3
2017-04-22T18:04:31.871Z,61.95
2017-04-22T18:06:55.419Z,62.15
2017-04-22T18:09:18.841Z,61.57
2017-04-22T18:11:42.309Z,61.66
2017-04-22T18:14:06.504Z,61.76
2017-04-22T18:16:29.949Z,61.19
2017-04-22T18:20:16.491Z,60.61
2017-04-22T18:22:39.942Z,60.61
2017-04-22T18:25:03.382Z,60.33
2017-04-22T18:27:18.463Z,60.71
2017-04-22T18:29:28.650Z,60.27
2017-04-22T18:31:52.195Z,60.64
2017-04-22T18:34:15.644Z,59.88
2017-04-22T18:36:39.014Z,59.85
2017-04-22T18:38:48.678Z,59.85
2017-04-22T18:41:12.120Z,59.76
2017-04-22T18:43:35.595Z,60.9
2017-04-22T18:45:59.083Z,61.35
2017-04-22T18:48:00.694Z,61.92
2017-04-22T18:50:24.185Z,61.73
2017-04-22T18:52:25.801Z,62.34
2017-04-22T18:54:49.300Z,63.83
2017-04-22T18:57:15.347Z,62.88
2017-04-22T18:59:38.825Z,63.26
2017-04-22T19:02:02.191Z,63.45
2017-04-22T19:04:25.647Z,63.45
2017-04-22T19:06:49.776Z,64.4
2017-04-22T19:09:13.732Z,64.5
2017-04-22T19:11:37.086Z,64.59
2017-04-22T19:14:00.532Z,63.92
2017-04-22T19:16:23.976Z,64.5
2017-04-22T19:18:48.177Z,65.52
2017-04-22T19:25:31.345Z,66.75
2017-04-22T19:27:46.401Z,66.85
2017-04-22T19:30:09.767Z,66.66
2017-04-22T19:32:26.316Z,66.66
2017-04-22T19:34:48.124Z,66.75
2017-04-22T19:37:12.504Z,66.18
2017-04-22T19:39:35.965Z,66.18
2017-04-22T19:41:59.422Z,67.61
2017-04-22T19:44:22.793Z,67.52
2017-04-22T19:46:46.160Z,67.23
2017-04-22T19:49:09.521Z,67.23
2017-04-22T19:51:24.489Z,67.23
2017-04-22T19:53:47.857Z,67.61
2017-04-22T19:56:11.314Z,67.71
2017-04-22T19:58:20.985Z,69.23
2017-04-22T20:00:44.429Z,69.62
2017-04-22T20:03:07.803Z,69.52
2017-04-22T20:05:31.265Z,69.23
2017-04-22T20:07:54.730Z,69.43
2017-04-22T20:10:18.260Z,70.28
2017-04-22T20:12:41.663Z,70.95
2017-04-22T20:15:05.825Z,70.95
2017-04-22T20:17:20.812Z,72.63
2017-04-22T20:19:44.183Z,73.11
2017-04-22T20:22:08.384Z,73.21
2017-04-22T20:24:31.632Z,73.3
2017-04-22T20:26:55.112Z,73.01
2017-04-22T20:29:19.276Z,72.72
2017-04-22T20:31:34.243Z,72.82
2017-04-22T20:35:33.377Z,72.63
2017-04-22T20:37:56.825Z,72.63
2017-04-22T20:40:20.174Z,72.53
2017-04-22T20:42:43.650Z,72.92
2017-04-22T20:45:07.038Z,73.3
2017-04-22T20:47:08.810Z,73.21
2017-04-22T20:49:19.604Z,73.39
2017-04-22T20:51:45.270Z,73.11
2017-04-22T20:54:08.654Z,73.01
2017-04-22T20:56:33.095Z,72.25
2017-04-22T20:58:57.331Z,73.11
2017-04-22T21:01:21.623Z,72.92
2017-04-22T21:03:44.976Z,72.72
2017-04-22T21:06:09.487Z,73.3
2017-04-22T21:08:32.924Z,72.82
2017-04-22T21:10:47.894Z,73.58
2017-04-22T21:13:11.267Z,73.58
2017-04-22T21:15:34.632Z,73.65
2017-04-22T21:17:58.013Z,74.79
2017-04-22T21:20:21.365Z,74.12
2017-04-22T21:24:31.427Z,73.68
2017-04-22T21:26:54.778Z,73.21
2017-04-22T21:29:18.148Z,72.44
2017-04-22T21:31:33.115Z,72.63
2017-04-22T21:33:56.482Z,72.92
2017-04-22T21:36:19.842Z,72.53
2017-04-22T21:40:18.973Z,72.63
2017-04-22T21:42:46.315Z,71.62
2017-04-22T21:45:09.673Z,71.58
2017-04-22T21:47:33.046Z,71.52
2017-04-22T21:49:56.456Z,70.76
2017-04-22T21:52:19.780Z,70.76
2017-04-22T21:54:43.224Z,70.67
2017-04-22T21:57:06.523Z,70.47
2017-04-22T21:59:29.874Z,70.95
2017-04-22T22:01:53.389Z,70.57
2017-04-22T22:04:16.816Z,73.39
2017-04-22T22:06:40.184Z,72.19
2017-04-22T22:09:03.532Z,71.43
2017-04-22T22:11:26.895Z,71.91
2017-04-22T22:13:50.289Z,71.14
2017-04-22T22:16:13.650Z,71.04
2017-04-22T22:18:39.877Z,71.33
2017-04-22T22:21:03.259Z,71.04
2017-04-22T22:23:26.586Z,71.52
2017-04-22T22:25:50.113Z,71.43
2017-04-22T22:28:13.424Z,71.23
2017-04-22T22:30:36.786Z,70.95
2017-04-22T22:33:01.193Z,71.23
2017-04-22T22:35:24.556Z,70.95
2017-04-22T22:37:47.899Z,71.33
2017-04-22T22:40:11.274Z,72.06
2017-04-22T22:42:34.764Z,71.33
2017-04-22T22:44:58.106Z,71.58
2017-04-22T22:47:21.482Z,72.25
2017-04-22T22:49:44.745Z,71.72
2017-04-22T22:52:10.760Z,71.33
2017-04-22T22:54:34.132Z,71.33
2017-04-22T22:56:58.722Z,71.91
2017-04-22T22:59:24.054Z,72.63
2017-04-22T23:01:47.391Z,72.06
2017-04-22T23:04:10.763Z,71.43
2017-04-22T23:06:34.135Z,72.16
2017-04-22T23:08:57.486Z,71.3
2017-04-22T23:11:20.878Z,70.47
2017-04-22T23:13:44.269Z,70.47
2017-04-22T23:16:07.586Z,69.9
2017-04-22T23:18:30.951Z,69.43
2017-04-22T23:20:54.327Z,70.63
2017-04-22T23:23:17.684Z,70.53
2017-04-22T23:27:16.815Z,71.2
2017-04-22T23:29:40.257Z,71.48
2017-04-22T23:31:55.227Z,71.77
2017-04-22T23:34:01.803Z,72.16
2017-04-22T23:36:26.191Z,72.06
2017-04-22T23:38:49.644Z,72.53
2017-04-22T23:41:13.005Z,73.01
2017-04-22T23:43:27.868Z,74.02
2017-04-22T23:45:51.254Z,73.21
2017-04-22T23:48:14.619Z,73.01
2017-04-22T23:50:37.985Z,73.39
2017-04-22T23:53:01.351Z,73.49
2017-04-22T23:55:24.704Z,74.16
2017-04-22T23:57:48.070Z,73.96
